Capt Leroy Devall Inc — WYU9878 — position and weather

sailwx.info

Track history (hours):
 
Tides and Currents Weather Stations Pressure Air Temp Water Temp Dewpoint Dewpoint Depression Visibility Wind Speed Wind Dir Waves Ship Positions

Capt Leroy Devall Inc

Owner: CAPT LEROY DEVALL INC, Sulphur, LA. More information available from US FCC via Universal Licensing System and Coast Guard Vessel Documentation Center.

Last reported at 2018-Feb-24 11:56 UTC. Time now 2018-Feb-24 23:19 UTC.
Position N 29°34' W 094°27'.

Length 20 m; draft 2.5 m.

Type: Towing. MMSI: 366973450.

Date/timePositionNaut miles runAvg speedWind from/ knotsBaromVisibWave heightAir tempDewpointWater temp
2018-Feb-24 11:56N 29°34' W 094°27'0 0.0
2018-Feb-24 11:29N 29°34' W 094°27'0 0.0
2018-Feb-24 09:32N 29°34' W 094°27'0 0.0
2018-Feb-24 09:20N 29°34' W 094°27'0 0.0
2018-Feb-24 08:59N 29°34' W 094°27'0 0.0
2018-Feb-24 06:55N 29°34' W 094°27'0 0.0
2018-Feb-24 03:50N 29°34' W 094°27'0 0.0
2018-Feb-24 03:30N 29°34' W 094°27'0 0.0
2018-Feb-23 23:42N 29°34' W 094°27'0 0.0
2018-Feb-23 22:52N 29°34' W 094°27'3 3.8
2018-Feb-23 22:02N 29°36' W 094°24'4 6.0
2018-Feb-23 21:19N 29°38' W 094°19'2 6.2
2018-Feb-23 20:59N 29°39' W 094°17'3 6.3
2018-Feb-23 20:30N 29°40' W 094°14'3 6.3
2018-Feb-23 20:00N 29°41' W 094°11'3 6.4
2018-Feb-23 19:30N 29°43' W 094°07'3 6.5
2018-Feb-23 19:00N 29°45' W 094°05'3 6.6
2018-Feb-23 18:30N 29°47' W 094°02'3 6.2
2018-Feb-23 18:00N 29°49' W 093°59'0 0.3
2018-Feb-23 17:30N 29°49' W 093°59'0 0.0
2018-Feb-23 17:00N 29°49' W 093°59'2 3.5
2018-Feb-23 16:30N 29°50' W 093°57'3 6.8
2018-Feb-23 16:00N 29°53' W 093°55'4 7.3
2018-Feb-23 15:30N 29°56' W 093°52'3 6.4
2018-Feb-23 15:00N 29°59' W 093°50'4 7.1
2018-Feb-23 14:30N 29°60' W 093°46'1 1.7
2018-Feb-23 14:00N 30°01' W 093°46'0 0.0
2018-Feb-23 13:30N 30°01' W 093°46'0 0.0
2018-Feb-23 13:00N 30°01' W 093°46'0 0.0
2018-Feb-23 12:30N 30°01' W 093°46'0 0.0
2018-Feb-23 12:00N 30°01' W 093°46'0 0.0
2018-Feb-23 11:28N 30°01' W 093°46'0 0.0
2018-Feb-23 11:00N 30°01' W 093°46'0 0.0
2018-Feb-23 10:30N 30°01' W 093°46'0 0.0
2018-Feb-23 10:00N 30°01' W 093°46'0 0.0
2018-Feb-23 09:29N 30°01' W 093°46'0 0.0
2018-Feb-23 09:00N 30°01' W 093°46'0 0.0
2018-Feb-23 08:30N 30°01' W 093°46'0 0.0
2018-Feb-23 08:00N 30°01' W 093°46'0 0.0
2018-Feb-23 07:30N 30°01' W 093°46'0 0.0
2018-Feb-23 07:00N 30°01' W 093°46'0 0.0
2018-Feb-23 06:30N 30°01' W 093°46'0 0.0
2018-Feb-23 06:00N 30°01' W 093°46'0 0.0
2018-Feb-23 05:30N 30°01' W 093°46'0 0.0
2018-Feb-23 05:00N 30°01' W 093°46'0 0.0
2018-Feb-23 04:27N 30°01' W 093°46'0 0.2
2018-Feb-23 03:50N 30°00' W 093°46'0 0.1
2018-Feb-23 03:27N 30°00' W 093°46'1 3.0
2018-Feb-23 03:00N 30°01' W 093°45'2 4.5
2018-Feb-23 02:30N 30°03' W 093°44'0 0.1
2018-Feb-23 02:00N 30°03' W 093°44'1 1.1
2018-Feb-23 01:28N 30°04' W 093°45'1 1.2
2018-Feb-23 01:00N 30°03' W 093°44'0 0.0
2018-Feb-23 00:30N 30°03' W 093°44'0 0.0
2018-Feb-22 23:59N 30°03' W 093°44'0 0.3
2018-Feb-22 23:28N 30°04' W 093°44'0 0.3
2018-Feb-22 23:00N 30°03' W 093°44'0 0.0
2018-Feb-22 22:30N 30°03' W 093°44'0 0.0
2018-Feb-22 22:00N 30°03' W 093°44'0 0.0
2018-Feb-22 21:30N 30°03' W 093°44'0 0.0
2018-Feb-22 21:00N 30°03' W 093°44'0 0.0
2018-Feb-22 20:30N 30°03' W 093°44'0 0.0
2018-Feb-22 19:27N 30°03' W 093°44'0 0.0
2018-Feb-22 19:00N 30°03' W 093°44'0 0.0
2018-Feb-22 18:31N 30°03' W 093°44'0 0.0
2018-Feb-22 18:00N 30°03' W 093°44'0 0.0
2018-Feb-22 17:30N 30°03' W 093°44'0 0.0
2018-Feb-22 17:00N 30°03' W 093°44'0 0.0
2018-Feb-22 16:30N 30°03' W 093°44'0 0.0
2018-Feb-22 16:00N 30°03' W 093°44'0 0.0
2018-Feb-22 15:30N 30°03' W 093°44'0 0.0
2018-Feb-22 15:00N 30°03' W 093°44'0 0.0
2018-Feb-22 14:30N 30°03' W 093°44'0 0.0
2018-Feb-22 14:00N 30°03' W 093°44'0 0.0
2018-Feb-22 13:31N 30°03' W 093°44'0 0.0
2018-Feb-22 13:00N 30°03' W 093°44'0 0.0
2018-Feb-22 12:30N 30°03' W 093°44'0 0.0
2018-Feb-22 12:00N 30°03' W 093°44'0 0.0
2018-Feb-22 11:31N 30°03' W 093°44'0 0.1
2018-Feb-22 11:00N 30°03' W 093°44'0 0.0
2018-Feb-22 10:31N 30°03' W 093°44'0 0.0
2018-Feb-22 10:00N 30°03' W 093°44'0 0.0
2018-Feb-22 09:30N 30°03' W 093°44'0 0.0
2018-Feb-22 09:00N 30°03' W 093°44'0 0.0
2018-Feb-22 08:30N 30°03' W 093°44'0 0.0
2018-Feb-22 07:58N 30°03' W 093°44'0 0.0
2018-Feb-22 07:30N 30°03' W 093°44'0 0.0
2018-Feb-22 06:57N 30°03' W 093°44'0 0.0
2018-Feb-22 06:31N 30°03' W 093°44'0 0.0
2018-Feb-22 06:00N 30°03' W 093°44'0 0.0
2018-Feb-22 05:30N 30°03' W 093°44'0 0.0
2018-Feb-22 05:00N 30°03' W 093°44'0 0.0
2018-Feb-22 04:30N 30°03' W 093°44'0 0.0
2018-Feb-22 04:00N 30°03' W 093°44'0 0.0
2018-Feb-22 03:28N 30°03' W 093°44'0 0.0
2018-Feb-22 02:59N 30°03' W 093°44'0 0.0
2018-Feb-22 02:30N 30°03' W 093°44'0 0.0
2018-Feb-22 02:00N 30°03' W 093°44'0 0.0
2018-Feb-22 01:30N 30°03' W 093°44'0 0.0
2018-Feb-22 01:00N 30°03' W 093°44'0 0.0
2018-Feb-22 00:30N 30°03' W 093°44'1 2.2
2018-Feb-22 00:00N 30°04' W 093°43'1 1.3
2018-Feb-21 23:29N 30°04' W 093°43'0 0.0
2018-Feb-21 22:59N 30°04' W 093°43'0 0.0
2018-Feb-21 22:29N 30°04' W 093°43'0 0.0
2018-Feb-21 22:00N 30°04' W 093°43'0 0.0
2018-Feb-21 21:30N 30°04' W 093°43'0 0.0
2018-Feb-21 21:00N 30°04' W 093°43'0 0.0
2018-Feb-21 20:30N 30°04' W 093°43'0 0.0
2018-Feb-21 19:59N 30°04' W 093°43'0 0.0
2018-Feb-21 19:30N 30°04' W 093°43'0 0.0
2018-Feb-21 18:58N 30°04' W 093°43'0 0.0
2018-Feb-21 18:30N 30°04' W 093°43'0 0.0
2018-Feb-21 18:00N 30°04' W 093°43'0 0.0
2018-Feb-21 17:30N 30°04' W 093°43'0 0.0
2018-Feb-21 17:00N 30°04' W 093°43'0 0.0
2018-Feb-21 16:30N 30°04' W 093°43'0 0.0
2018-Feb-21 16:00N 30°04' W 093°43'0 0.0
2018-Feb-21 15:30N 30°04' W 093°43'0 0.0
2018-Feb-21 15:00N 30°04' W 093°43'0 0.0
2018-Feb-21 14:30N 30°04' W 093°43'0 0.0
2018-Feb-21 14:00N 30°04' W 093°43'1 2.5
2018-Feb-21 13:30N 30°03' W 093°43'1 0.1
2018-Feb-20 22:35N 30°03' W 093°44'0 0.0
2018-Feb-20 22:28N 30°03' W 093°44'0 0.0
2018-Feb-20 22:00N 30°03' W 093°44'0 0.0
2018-Feb-20 21:30N 30°03' W 093°44'0 0.0
2018-Feb-20 21:00N 30°03' W 093°44'0 0.0
2018-Feb-20 20:30N 30°03' W 093°44'0 0.0
2018-Feb-20 20:00N 30°03' W 093°44'1 2.6
2018-Feb-20 19:30N 30°04' W 093°43'0 0.0
2018-Feb-20 18:58N 30°04' W 093°43'0 0.0
2018-Feb-20 18:30N 30°04' W 093°43'0 0.0
2018-Feb-20 17:56N 30°04' W 093°43'0 0.0
2018-Feb-20 17:25N 30°04' W 093°43'0 0.0
2018-Feb-20 17:00N 30°04' W 093°43'0 0.0
2018-Feb-20 16:30N 30°04' W 093°43'0 0.0
2018-Feb-20 16:00N 30°04' W 093°43'0 0.0
2018-Feb-20 15:30N 30°04' W 093°43'0 0.0
2018-Feb-20 15:00N 30°04' W 093°43'0 0.0
2018-Feb-20 14:30N 30°04' W 093°43'0 0.0
2018-Feb-20 14:00N 30°04' W 093°43'0 0.0
2018-Feb-20 13:30N 30°04' W 093°43'0 0.0
2018-Feb-20 13:00N 30°04' W 093°43'0 0.0
2018-Feb-20 12:30N 30°04' W 093°43'0 0.0
2018-Feb-20 12:00N 30°04' W 093°43'0 0.0
2018-Feb-20 11:30N 30°04' W 093°43'0 0.0
2018-Feb-20 11:00N 30°04' W 093°43'0 0.0
2018-Feb-20 10:30N 30°04' W 093°43'0 0.0
2018-Feb-20 10:00N 30°04' W 093°43'0 0.0
2018-Feb-20 09:30N 30°04' W 093°43'0 0.0
2018-Feb-20 09:00N 30°04' W 093°43'0 0.0
2018-Feb-20 08:31N 30°04' W 093°43'0 0.0
2018-Feb-20 08:00N 30°04' W 093°43'0 0.0
2018-Feb-20 07:30N 30°04' W 093°43'0 0.0
2018-Feb-20 07:00N 30°04' W 093°43'0 0.0
2018-Feb-20 06:30N 30°04' W 093°43'0 0.0
2018-Feb-20 06:00N 30°04' W 093°43'0 0.0
2018-Feb-20 05:30N 30°04' W 093°43'0 0.0
2018-Feb-20 05:00N 30°04' W 093°43'2 2.6
2018-Feb-20 04:23N 30°03' W 093°44'0 0.6
2018-Feb-20 04:00N 30°03' W 093°44'4 7.1
2018-Feb-20 03:28N 29°60' W 093°46'3 7.5
2018-Feb-20 03:00N 29°59' W 093°50'4 7.3
2018-Feb-20 02:30N 29°56' W 093°53'4 7.6
2018-Feb-20 02:00N 29°53' W 093°55'4 7.6
2018-Feb-20 01:30N 29°49' W 093°58'3 6.4
2018-Feb-20 01:00N 29°48' W 094°01'3 6.8
2018-Feb-20 00:30N 29°45' W 094°04'3 6.8
2018-Feb-20 00:00N 29°43' W 094°07'2 4.1
2018-Feb-19 23:30N 29°42' W 094°09'3 6.3
2018-Feb-19 23:01N 29°41' W 094°12'4 7.0
2018-Feb-19 22:30N 29°39' W 094°16'4 7.1
2018-Feb-19 22:00N 29°38' W 094°19'13 5.5
2018-Feb-19 19:33N 29°30' W 094°32'1 0.7
2018-Feb-19 17:48N 29°30' W 094°34'2 4.6
2018-Feb-19 17:25N 29°29' W 094°35'3 7.3
2018-Feb-19 17:00N 29°28' W 094°39'3 6.3
2018-Feb-19 16:27N 29°26' W 094°42'2 0.8
2018-Feb-19 14:23N 29°27' W 094°41'2 4.2
2018-Feb-19 13:57N 29°26' W 094°42'3 6.0
2018-Feb-19 13:30N 29°24' W 094°44'4 7.5
2018-Feb-19 12:59N 29°22' W 094°48'2 3.0
2018-Feb-19 12:27N 29°21' W 094°49'0 0.0
2018-Feb-19 11:59N 29°21' W 094°49'0 0.1
2018-Feb-19 10:17N 29°21' W 094°49'0 0.0
2018-Feb-19 09:55N 29°21' W 094°49'0 0.0
2018-Feb-19 09:29N 29°21' W 094°49'0 0.0
2018-Feb-19 09:00N 29°21' W 094°49'0 0.0
2018-Feb-19 08:30N 29°21' W 094°49'0 0.0
2018-Feb-19 08:00N 29°21' W 094°49'0 0.0
2018-Feb-19 07:30N 29°21' W 094°49'0 0.0
2018-Feb-19 06:55N 29°21' W 094°49'0 0.0
2018-Feb-19 05:48N 29°21' W 094°49'0 0.0
2018-Feb-19 05:21N 29°21' W 094°49'0 0.0
2018-Feb-19 05:00N 29°21' W 094°49'12 2.0
2018-Feb-18 23:03N 29°32' W 094°54'0 7.8
2018-Feb-18 23:00N 29°32' W 094°54'4 7.8
2018-Feb-18 22:30N 29°35' W 094°56'3 6.8
2018-Feb-18 22:00N 29°37' W 095°00'1 1.9
2018-Feb-18 21:30N 29°36' W 095°01'0 0.0
2018-Feb-18 21:00N 29°36' W 095°01'0 0.0
2018-Feb-18 20:30N 29°36' W 095°01'0 0.0
2018-Feb-18 20:00N 29°36' W 095°01'0 0.0
2018-Feb-18 19:30N 29°36' W 095°01'0 0.0
2018-Feb-18 19:00N 29°36' W 095°01'0 0.0
2018-Feb-18 18:30N 29°36' W 095°01'0 0.0
2018-Feb-18 18:00N 29°36' W 095°01'0 0.0
2018-Feb-18 17:30N 29°36' W 095°01'0 0.0
2018-Feb-18 17:00N 29°36' W 095°01'0 0.0
2018-Feb-18 16:30N 29°36' W 095°01'0 0.0
2018-Feb-18 16:00N 29°36' W 095°01'0 0.0
2018-Feb-18 15:30N 29°36' W 095°01'0 0.0
2018-Feb-18 15:00N 29°36' W 095°01'0 0.0
2018-Feb-18 14:30N 29°36' W 095°01'0 0.0
2018-Feb-18 14:00N 29°36' W 095°01'0 0.0
2018-Feb-18 13:30N 29°36' W 095°01'0 0.0
2018-Feb-18 13:00N 29°36' W 095°01'0 0.0
2018-Feb-18 12:30N 29°36' W 095°01'0 0.0
2018-Feb-18 12:00N 29°36' W 095°01'0 0.0
2018-Feb-18 11:30N 29°36' W 095°01'0 0.0
2018-Feb-18 11:00N 29°36' W 095°01'0 0.0
2018-Feb-18 10:30N 29°36' W 095°01'0 0.0
2018-Feb-18 10:00N 29°36' W 095°01'0 0.0
2018-Feb-18 09:30N 29°36' W 095°01'0 0.0
2018-Feb-18 09:00N 29°36' W 095°01'0 0.0
2018-Feb-18 08:30N 29°36' W 095°01'0 0.0
2018-Feb-18 08:00N 29°36' W 095°01'0 0.0
2018-Feb-18 07:30N 29°36' W 095°01'0 0.0
2018-Feb-18 07:00N 29°36' W 095°01'0 0.0
2018-Feb-18 06:30N 29°36' W 095°01'0 0.0
2018-Feb-18 06:00N 29°36' W 095°01'0 0.0
2018-Feb-18 05:30N 29°36' W 095°01'0 0.0
2018-Feb-18 05:00N 29°36' W 095°01'0 0.0
2018-Feb-18 04:30N 29°36' W 095°01'0 0.0
2018-Feb-18 04:00N 29°36' W 095°01'0 0.0
2018-Feb-18 03:30N 29°36' W 095°01'0 0.0
2018-Feb-18 03:00N 29°36' W 095°01'0 0.0
2018-Feb-18 02:30N 29°36' W 095°01'0 0.0
2018-Feb-18 02:00N 29°36' W 095°01'0 0.0
2018-Feb-18 01:30N 29°36' W 095°01'0 0.0
2018-Feb-18 01:00N 29°36' W 095°01'0 0.0
2018-Feb-18 00:30N 29°36' W 095°01'1 1.2
2018-Feb-18 00:00N 29°37' W 095°00'3 6.0
2018-Feb-17 23:30N 29°36' W 094°57'3 6.5
2018-Feb-17 23:00N 29°34' W 094°55'5 7.2
2018-Feb-17 22:16N 29°29' W 094°52'3 7.1
2018-Feb-17 21:49N 29°26' W 094°50'4 7.4
2018-Feb-17 21:18N 29°23' W 094°48'11 1.3
2018-Feb-17 12:44N 29°29' W 094°37'0 0.0
2018-Feb-17 11:32N 29°29' W 094°37'0 0.0
2018-Feb-17 11:30N 29°29' W 094°37'0 0.0
2018-Feb-17 10:44N 29°29' W 094°37'0 0.0
2018-Feb-17 10:28N 29°29' W 094°37'0 0.0
2018-Feb-17 09:54N 29°29' W 094°37'0 0.0
2018-Feb-17 09:29N 29°29' W 094°37'0 0.0
2018-Feb-17 08:58N 29°29' W 094°37'0 0.0
2018-Feb-17 08:26N 29°29' W 094°37'0 0.0
2018-Feb-17 07:57N 29°29' W 094°37'0 0.0
2018-Feb-17 07:28N 29°29' W 094°37'0 0.0
2018-Feb-17 06:51N 29°29' W 094°37'0 0.0
2018-Feb-17 06:28N 29°29' W 094°37'0 0.0
2018-Feb-17 06:00N 29°29' W 094°37'0 0.0
2018-Feb-17 05:28N 29°29' W 094°37'0 0.0
2018-Feb-17 05:00N 29°29' W 094°37'0 0.0
2018-Feb-17 04:30N 29°29' W 094°37'0 0.0
2018-Feb-17 04:00N 29°29' W 094°37'0 0.0
2018-Feb-17 03:30N 29°29' W 094°37'0 0.0
2018-Feb-17 03:00N 29°29' W 094°37'0 0.0
2018-Feb-17 02:29N 29°29' W 094°37'0 0.0
2018-Feb-17 02:00N 29°29' W 094°37'0 0.0
2018-Feb-17 01:26N 29°29' W 094°37'0 0.0
2018-Feb-17 01:00N 29°29' W 094°37'0 0.0
2018-Feb-17 00:27N 29°29' W 094°37'0 0.0
2018-Feb-17 00:00N 29°29' W 094°37'0 0.0
2018-Feb-16 23:30N 29°29' W 094°37'0 0.0
2018-Feb-16 22:59N 29°29' W 094°37'0 0.0
2018-Feb-16 22:27N 29°29' W 094°37'13 2.7
2018-Feb-16 17:34N 29°36' W 094°25'0 5.6
2018-Feb-16 17:29N 29°36' W 094°24'6 5.3
2018-Feb-16 16:25N 29°38' W 094°18'2 5.8
2018-Feb-16 16:00N 29°39' W 094°16'2 4.8
2018-Feb-16 15:30N 29°40' W 094°13'2 4.8
2018-Feb-16 15:00N 29°41' W 094°11'2 4.5
2018-Feb-16 14:30N 29°42' W 094°08'3 5.5
2018-Feb-16 14:00N 29°44' W 094°06'3 5.2
2018-Feb-16 13:30N 29°46' W 094°04'2 3.2
2018-Feb-16 13:00N 29°47' W 094°02'0 0.0
2018-Feb-16 12:30N 29°47' W 094°02'0 0.0
2018-Feb-16 12:00N 29°47' W 094°02'0 0.0
2018-Feb-16 11:30N 29°47' W 094°02'0 0.0
2018-Feb-16 11:00N 29°47' W 094°02'0 0.0
2018-Feb-16 10:30N 29°47' W 094°02'0 0.0
2018-Feb-16 10:00N 29°47' W 094°02'0 0.0
2018-Feb-16 09:30N 29°47' W 094°02'0 0.0
2018-Feb-16 09:00N 29°47' W 094°02'0 0.0
2018-Feb-16 08:30N 29°47' W 094°02'0 0.0
2018-Feb-16 08:00N 29°47' W 094°02'0 0.0
2018-Feb-16 07:30N 29°47' W 094°02'0 0.0
2018-Feb-16 07:00N 29°47' W 094°02'0 0.0
2018-Feb-16 06:30N 29°47' W 094°02'0 0.0
2018-Feb-16 06:00N 29°47' W 094°02'0 0.0
2018-Feb-16 05:30N 29°47' W 094°02'0 0.0
2018-Feb-16 05:00N 29°47' W 094°02'0 0.0
2018-Feb-16 04:30N 29°47' W 094°02'0 0.0
2018-Feb-16 04:00N 29°47' W 094°02'0 0.0
2018-Feb-16 03:30N 29°47' W 094°02'0 0.0
2018-Feb-16 03:00N 29°47' W 094°02'0 0.0
2018-Feb-16 02:30N 29°47' W 094°02'0 0.0
2018-Feb-16 02:00N 29°47' W 094°02'0 0.0
2018-Feb-16 01:30N 29°47' W 094°02'0 0.0
2018-Feb-16 01:00N 29°47' W 094°02'1 2.8
2018-Feb-16 00:30N 29°47' W 094°01'3 5.4
2018-Feb-16 00:00N 29°49' W 093°58'0 0.1
2018-Feb-15 23:30N 29°49' W 093°58'0 0.0
2018-Feb-15 23:00N 29°49' W 093°58'0 0.0
2018-Feb-15 22:30N 29°49' W 093°58'0 0.1
2018-Feb-15 22:00N 29°49' W 093°58'3 5.4
2018-Feb-15 21:30N 29°51' W 093°57'4 7.3
2018-Feb-15 21:00N 29°54' W 093°54'4 7.4
2018-Feb-15 20:30N 29°57' W 093°52'3 6.8
2018-Feb-15 20:00N 29°59' W 093°48'4 7.5
2018-Feb-15 19:30N 30°01' W 093°45'2 4.1
2018-Feb-15 18:59N 30°03' W 093°44'0 0.0
2018-Feb-15 18:30N 30°03' W 093°44'0 0.1
2018-Feb-15 18:00N 30°03' W 093°44'3 5.0
2018-Feb-15 17:30N 30°01' W 093°45'1 1.2
2018-Feb-15 17:00N 30°01' W 093°45'2 4.1
2018-Feb-15 16:30N 30°03' W 093°44'0 0.0
2018-Feb-15 16:00N 30°03' W 093°44'0 0.0
2018-Feb-15 15:30N 30°03' W 093°44'0 0.0
2018-Feb-15 15:00N 30°03' W 093°44'0 0.0
2018-Feb-15 14:30N 30°03' W 093°44'0 0.0
2018-Feb-15 14:00N 30°03' W 093°44'0 0.0
2018-Feb-15 13:30N 30°03' W 093°44'0 0.0
2018-Feb-15 13:00N 30°03' W 093°44'0 0.0
2018-Feb-15 12:30N 30°03' W 093°44'0 0.0
2018-Feb-15 12:00N 30°03' W 093°44'0 0.0
2018-Feb-15 11:30N 30°03' W 093°44'0 0.0
2018-Feb-15 11:00N 30°03' W 093°44'0 0.0
2018-Feb-15 10:30N 30°03' W 093°44'0 0.0
2018-Feb-15 10:00N 30°03' W 093°44'0 0.0
2018-Feb-15 09:30N 30°03' W 093°44'0 0.0
2018-Feb-15 09:00N 30°03' W 093°44'0 0.0
2018-Feb-15 08:30N 30°03' W 093°44'0 0.0
2018-Feb-15 08:00N 30°03' W 093°44'0 0.0
2018-Feb-15 07:30N 30°03' W 093°44'0 0.0
2018-Feb-15 07:01N 30°03' W 093°44'0 0.0
2018-Feb-15 06:30N 30°03' W 093°44'0 0.0
2018-Feb-15 06:00N 30°03' W 093°44'0 0.0
2018-Feb-15 05:31N 30°03' W 093°44'0 0.0
2018-Feb-15 05:00N 30°03' W 093°44'0 0.0
2018-Feb-15 04:30N 30°03' W 093°44'0 0.0
2018-Feb-15 04:00N 30°03' W 093°44'0 0.0
2018-Feb-15 03:30N 30°03' W 093°44'0 0.0
2018-Feb-15 03:01N 30°03' W 093°44'0 0.0
2018-Feb-15 02:30N 30°03' W 093°44'0 0.0
2018-Feb-15 02:00N 30°03' W 093°44'0 0.0
2018-Feb-15 01:30N 30°03' W 093°44'0 0.0
2018-Feb-15 01:00N 30°03' W 093°44'0 0.0
2018-Feb-15 00:30N 30°03' W 093°44'0 0.0
2018-Feb-15 00:00N 30°03' W 093°44'0 0.0
2018-Feb-14 23:30N 30°03' W 093°44'0 0.0
2018-Feb-14 23:00N 30°03' W 093°44'0 0.0
2018-Feb-14 22:30N 30°03' W 093°44'0 0.0
2018-Feb-14 22:00N 30°03' W 093°44'0 0.0
2018-Feb-14 21:30N 30°03' W 093°44'0 0.0
2018-Feb-14 21:00N 30°03' W 093°44'0 0.0
2018-Feb-14 20:29N 30°03' W 093°44'0 0.0
2018-Feb-14 20:00N 30°03' W 093°44'0 0.0
2018-Feb-14 19:30N 30°03' W 093°44'0 0.0
2018-Feb-14 19:00N 30°03' W 093°44'0 0.0
2018-Feb-14 18:30N 30°03' W 093°44'0 0.0
2018-Feb-14 18:00N 30°03' W 093°44'0 0.0
2018-Feb-14 17:30N 30°03' W 093°44'1 1.8
2018-Feb-14 17:00N 30°02' W 093°44'1 1.0
2018-Feb-14 16:30N 30°03' W 093°44'1 1.4
2018-Feb-14 15:31N 30°04' W 093°45'0 0.0
2018-Feb-14 15:22N 30°04' W 093°45'0 0.2
2018-Feb-14 15:00N 30°04' W 093°45'1 1.4
2018-Feb-14 14:30N 30°03' W 093°44'0 0.0
2018-Feb-14 14:00N 30°03' W 093°44'0 0.0
2018-Feb-14 13:30N 30°03' W 093°44'0 0.0
2018-Feb-14 13:00N 30°03' W 093°44'0 0.0
2018-Feb-14 12:31N 30°03' W 093°44'0 0.0
2018-Feb-14 12:00N 30°03' W 093°44'  
Track history (hours):
 
Tides and Currents Weather Stations Pressure Air Temp Water Temp Dewpoint Dewpoint Depression Visibility Wind Speed Wind Dir Waves Ship Positions

Capt Leroy Devall Inc

Owner: CAPT LEROY DEVALL INC, Sulphur, LA. More information available from US FCC via Universal Licensing System and Coast Guard Vessel Documentation Center.

Last reported at 2018-Feb-24 11:56 UTC. Time now 2018-Feb-24 23:19 UTC.
Position N 29°34' W 094°27'.

Length 20 m; draft 2.5 m.

Type: Towing. MMSI: 366973450.

Date/timePositionNaut miles runAvg speedWind from/ knotsBaromVisibWave heightAir tempDewpointWater temp
2018-Feb-24 11:56N 29°34' W 094°27'0 0.0
2018-Feb-24 11:29N 29°34' W 094°27'0 0.0
2018-Feb-24 09:32N 29°34' W 094°27'0 0.0
2018-Feb-24 09:20N 29°34' W 094°27'0 0.0
2018-Feb-24 08:59N 29°34' W 094°27'0 0.0
2018-Feb-24 06:55N 29°34' W 094°27'0 0.0
2018-Feb-24 03:50N 29°34' W 094°27'0 0.0
2018-Feb-24 03:30N 29°34' W 094°27'0 0.0
2018-Feb-23 23:42N 29°34' W 094°27'0 0.0
2018-Feb-23 22:52N 29°34' W 094°27'3 3.8
2018-Feb-23 22:02N 29°36' W 094°24'4 6.0
2018-Feb-23 21:19N 29°38' W 094°19'2 6.2
2018-Feb-23 20:59N 29°39' W 094°17'3 6.3
2018-Feb-23 20:30N 29°40' W 094°14'3 6.3
2018-Feb-23 20:00N 29°41' W 094°11'3 6.4
2018-Feb-23 19:30N 29°43' W 094°07'3 6.5
2018-Feb-23 19:00N 29°45' W 094°05'3 6.6
2018-Feb-23 18:30N 29°47' W 094°02'3 6.2
2018-Feb-23 18:00N 29°49' W 093°59'0 0.3
2018-Feb-23 17:30N 29°49' W 093°59'0 0.0
2018-Feb-23 17:00N 29°49' W 093°59'2 3.5
2018-Feb-23 16:30N 29°50' W 093°57'3 6.8
2018-Feb-23 16:00N 29°53' W 093°55'4 7.3
2018-Feb-23 15:30N 29°56' W 093°52'3 6.4
2018-Feb-23 15:00N 29°59' W 093°50'4 7.1
2018-Feb-23 14:30N 29°60' W 093°46'1 1.7
2018-Feb-23 14:00N 30°01' W 093°46'0 0.0
2018-Feb-23 13:30N 30°01' W 093°46'0 0.0
2018-Feb-23 13:00N 30°01' W 093°46'0 0.0
2018-Feb-23 12:30N 30°01' W 093°46'0 0.0
2018-Feb-23 12:00N 30°01' W 093°46'0 0.0
2018-Feb-23 11:28N 30°01' W 093°46'0 0.0
2018-Feb-23 11:00N 30°01' W 093°46'0 0.0
2018-Feb-23 10:30N 30°01' W 093°46'0 0.0
2018-Feb-23 10:00N 30°01' W 093°46'0 0.0
2018-Feb-23 09:29N 30°01' W 093°46'0 0.0
2018-Feb-23 09:00N 30°01' W 093°46'0 0.0
2018-Feb-23 08:30N 30°01' W 093°46'0 0.0
2018-Feb-23 08:00N 30°01' W 093°46'0 0.0
2018-Feb-23 07:30N 30°01' W 093°46'0 0.0
2018-Feb-23 07:00N 30°01' W 093°46'0 0.0
2018-Feb-23 06:30N 30°01' W 093°46'0 0.0
2018-Feb-23 06:00N 30°01' W 093°46'0 0.0
2018-Feb-23 05:30N 30°01' W 093°46'0 0.0
2018-Feb-23 05:00N 30°01' W 093°46'0 0.0
2018-Feb-23 04:27N 30°01' W 093°46'0 0.2
2018-Feb-23 03:50N 30°00' W 093°46'0 0.1
2018-Feb-23 03:27N 30°00' W 093°46'1 3.0
2018-Feb-23 03:00N 30°01' W 093°45'2 4.5
2018-Feb-23 02:30N 30°03' W 093°44'0 0.1
2018-Feb-23 02:00N 30°03' W 093°44'1 1.1
2018-Feb-23 01:28N 30°04' W 093°45'1 1.2
2018-Feb-23 01:00N 30°03' W 093°44'0 0.0
2018-Feb-23 00:30N 30°03' W 093°44'0 0.0
2018-Feb-22 23:59N 30°03' W 093°44'0 0.3
2018-Feb-22 23:28N 30°04' W 093°44'0 0.3
2018-Feb-22 23:00N 30°03' W 093°44'0 0.0
2018-Feb-22 22:30N 30°03' W 093°44'0 0.0
2018-Feb-22 22:00N 30°03' W 093°44'0 0.0
2018-Feb-22 21:30N 30°03' W 093°44'0 0.0
2018-Feb-22 21:00N 30°03' W 093°44'0 0.0
2018-Feb-22 20:30N 30°03' W 093°44'0 0.0
2018-Feb-22 19:27N 30°03' W 093°44'0 0.0
2018-Feb-22 19:00N 30°03' W 093°44'0 0.0
2018-Feb-22 18:31N 30°03' W 093°44'0 0.0
2018-Feb-22 18:00N 30°03' W 093°44'0 0.0
2018-Feb-22 17:30N 30°03' W 093°44'0 0.0
2018-Feb-22 17:00N 30°03' W 093°44'0 0.0
2018-Feb-22 16:30N 30°03' W 093°44'0 0.0
2018-Feb-22 16:00N 30°03' W 093°44'0 0.0
2018-Feb-22 15:30N 30°03' W 093°44'0 0.0
2018-Feb-22 15:00N 30°03' W 093°44'0 0.0
2018-Feb-22 14:30N 30°03' W 093°44'0 0.0
2018-Feb-22 14:00N 30°03' W 093°44'0 0.0
2018-Feb-22 13:31N 30°03' W 093°44'0 0.0
2018-Feb-22 13:00N 30°03' W 093°44'0 0.0
2018-Feb-22 12:30N 30°03' W 093°44'0 0.0
2018-Feb-22 12:00N 30°03' W 093°44'0 0.0
2018-Feb-22 11:31N 30°03' W 093°44'0 0.1
2018-Feb-22 11:00N 30°03' W 093°44'0 0.0
2018-Feb-22 10:31N 30°03' W 093°44'0 0.0
2018-Feb-22 10:00N 30°03' W 093°44'0 0.0
2018-Feb-22 09:30N 30°03' W 093°44'0 0.0
2018-Feb-22 09:00N 30°03' W 093°44'0 0.0
2018-Feb-22 08:30N 30°03' W 093°44'0 0.0
2018-Feb-22 07:58N 30°03' W 093°44'0 0.0
2018-Feb-22 07:30N 30°03' W 093°44'0 0.0
2018-Feb-22 06:57N 30°03' W 093°44'0 0.0
2018-Feb-22 06:31N 30°03' W 093°44'0 0.0
2018-Feb-22 06:00N 30°03' W 093°44'0 0.0
2018-Feb-22 05:30N 30°03' W 093°44'0 0.0
2018-Feb-22 05:00N 30°03' W 093°44'0 0.0
2018-Feb-22 04:30N 30°03' W 093°44'0 0.0
2018-Feb-22 04:00N 30°03' W 093°44'0 0.0
2018-Feb-22 03:28N 30°03' W 093°44'0 0.0
2018-Feb-22 02:59N 30°03' W 093°44'0 0.0
2018-Feb-22 02:30N 30°03' W 093°44'0 0.0
2018-Feb-22 02:00N 30°03' W 093°44'0 0.0
2018-Feb-22 01:30N 30°03' W 093°44'0 0.0
2018-Feb-22 01:00N 30°03' W 093°44'0 0.0
2018-Feb-22 00:30N 30°03' W 093°44'1 2.2
2018-Feb-22 00:00N 30°04' W 093°43'1 1.3
2018-Feb-21 23:29N 30°04' W 093°43'0 0.0
2018-Feb-21 22:59N 30°04' W 093°43'0 0.0
2018-Feb-21 22:29N 30°04' W 093°43'0 0.0
2018-Feb-21 22:00N 30°04' W 093°43'0 0.0
2018-Feb-21 21:30N 30°04' W 093°43'0 0.0
2018-Feb-21 21:00N 30°04' W 093°43'0 0.0
2018-Feb-21 20:30N 30°04' W 093°43'0 0.0
2018-Feb-21 19:59N 30°04' W 093°43'0 0.0
2018-Feb-21 19:30N 30°04' W 093°43'0 0.0
2018-Feb-21 18:58N 30°04' W 093°43'0 0.0
2018-Feb-21 18:30N 30°04' W 093°43'0 0.0
2018-Feb-21 18:00N 30°04' W 093°43'0 0.0
2018-Feb-21 17:30N 30°04' W 093°43'0 0.0
2018-Feb-21 17:00N 30°04' W 093°43'0 0.0
2018-Feb-21 16:30N 30°04' W 093°43'0 0.0
2018-Feb-21 16:00N 30°04' W 093°43'0 0.0
2018-Feb-21 15:30N 30°04' W 093°43'0 0.0
2018-Feb-21 15:00N 30°04' W 093°43'0 0.0
2018-Feb-21 14:30N 30°04' W 093°43'0 0.0
2018-Feb-21 14:00N 30°04' W 093°43'1 2.5
2018-Feb-21 13:30N 30°03' W 093°43'1 0.1
2018-Feb-20 22:35N 30°03' W 093°44'0 0.0
2018-Feb-20 22:28N 30°03' W 093°44'0 0.0
2018-Feb-20 22:00N 30°03' W 093°44'0 0.0
2018-Feb-20 21:30N 30°03' W 093°44'0 0.0
2018-Feb-20 21:00N 30°03' W 093°44'0 0.0
2018-Feb-20 20:30N 30°03' W 093°44'0 0.0
2018-Feb-20 20:00N 30°03' W 093°44'1 2.6
2018-Feb-20 19:30N 30°04' W 093°43'0 0.0
2018-Feb-20 18:58N 30°04' W 093°43'0 0.0
2018-Feb-20 18:30N 30°04' W 093°43'0 0.0
2018-Feb-20 17:56N 30°04' W 093°43'0 0.0
2018-Feb-20 17:25N 30°04' W 093°43'0 0.0
2018-Feb-20 17:00N 30°04' W 093°43'0 0.0
2018-Feb-20 16:30N 30°04' W 093°43'0 0.0
2018-Feb-20 16:00N 30°04' W 093°43'0 0.0
2018-Feb-20 15:30N 30°04' W 093°43'0 0.0
2018-Feb-20 15:00N 30°04' W 093°43'0 0.0
2018-Feb-20 14:30N 30°04' W 093°43'0 0.0
2018-Feb-20 14:00N 30°04' W 093°43'0 0.0
2018-Feb-20 13:30N 30°04' W 093°43'0 0.0
2018-Feb-20 13:00N 30°04' W 093°43'0 0.0
2018-Feb-20 12:30N 30°04' W 093°43'0 0.0
2018-Feb-20 12:00N 30°04' W 093°43'0 0.0
2018-Feb-20 11:30N 30°04' W 093°43'0 0.0
2018-Feb-20 11:00N 30°04' W 093°43'0 0.0
2018-Feb-20 10:30N 30°04' W 093°43'0 0.0
2018-Feb-20 10:00N 30°04' W 093°43'0 0.0
2018-Feb-20 09:30N 30°04' W 093°43'0 0.0
2018-Feb-20 09:00N 30°04' W 093°43'0 0.0
2018-Feb-20 08:31N 30°04' W 093°43'0 0.0
2018-Feb-20 08:00N 30°04' W 093°43'0 0.0
2018-Feb-20 07:30N 30°04' W 093°43'0 0.0
2018-Feb-20 07:00N 30°04' W 093°43'0 0.0
2018-Feb-20 06:30N 30°04' W 093°43'0 0.0
2018-Feb-20 06:00N 30°04' W 093°43'0 0.0
2018-Feb-20 05:30N 30°04' W 093°43'0 0.0
2018-Feb-20 05:00N 30°04' W 093°43'2 2.6
2018-Feb-20 04:23N 30°03' W 093°44'0 0.6
2018-Feb-20 04:00N 30°03' W 093°44'4 7.1
2018-Feb-20 03:28N 29°60' W 093°46'3 7.5
2018-Feb-20 03:00N 29°59' W 093°50'4 7.3
2018-Feb-20 02:30N 29°56' W 093°53'4 7.6
2018-Feb-20 02:00N 29°53' W 093°55'4 7.6
2018-Feb-20 01:30N 29°49' W 093°58'3 6.4
2018-Feb-20 01:00N 29°48' W 094°01'3 6.8
2018-Feb-20 00:30N 29°45' W 094°04'3 6.8
2018-Feb-20 00:00N 29°43' W 094°07'2 4.1
2018-Feb-19 23:30N 29°42' W 094°09'3 6.3
2018-Feb-19 23:01N 29°41' W 094°12'4 7.0
2018-Feb-19 22:30N 29°39' W 094°16'4 7.1
2018-Feb-19 22:00N 29°38' W 094°19'13 5.5
2018-Feb-19 19:33N 29°30' W 094°32'1 0.7
2018-Feb-19 17:48N 29°30' W 094°34'2 4.6
2018-Feb-19 17:25N 29°29' W 094°35'3 7.3
2018-Feb-19 17:00N 29°28' W 094°39'3 6.3
2018-Feb-19 16:27N 29°26' W 094°42'2 0.8
2018-Feb-19 14:23N 29°27' W 094°41'2 4.2
2018-Feb-19 13:57N 29°26' W 094°42'3 6.0
2018-Feb-19 13:30N 29°24' W 094°44'4 7.5
2018-Feb-19 12:59N 29°22' W 094°48'2 3.0
2018-Feb-19 12:27N 29°21' W 094°49'0 0.0
2018-Feb-19 11:59N 29°21' W 094°49'0 0.1
2018-Feb-19 10:17N 29°21' W 094°49'0 0.0
2018-Feb-19 09:55N 29°21' W 094°49'0 0.0
2018-Feb-19 09:29N 29°21' W 094°49'0 0.0
2018-Feb-19 09:00N 29°21' W 094°49'0 0.0
2018-Feb-19 08:30N 29°21' W 094°49'0 0.0
2018-Feb-19 08:00N 29°21' W 094°49'0 0.0
2018-Feb-19 07:30N 29°21' W 094°49'0 0.0
2018-Feb-19 06:55N 29°21' W 094°49'0 0.0
2018-Feb-19 05:48N 29°21' W 094°49'0 0.0
2018-Feb-19 05:21N 29°21' W 094°49'0 0.0
2018-Feb-19 05:00N 29°21' W 094°49'12 2.0
2018-Feb-18 23:03N 29°32' W 094°54'0 7.8
2018-Feb-18 23:00N 29°32' W 094°54'4 7.8
2018-Feb-18 22:30N 29°35' W 094°56'3 6.8
2018-Feb-18 22:00N 29°37' W 095°00'1 1.9
2018-Feb-18 21:30N 29°36' W 095°01'0 0.0
2018-Feb-18 21:00N 29°36' W 095°01'0 0.0
2018-Feb-18 20:30N 29°36' W 095°01'0 0.0
2018-Feb-18 20:00N 29°36' W 095°01'0 0.0
2018-Feb-18 19:30N 29°36' W 095°01'0 0.0
2018-Feb-18 19:00N 29°36' W 095°01'0 0.0
2018-Feb-18 18:30N 29°36' W 095°01'0 0.0
2018-Feb-18 18:00N 29°36' W 095°01'0 0.0
2018-Feb-18 17:30N 29°36' W 095°01'0 0.0
2018-Feb-18 17:00N 29°36' W 095°01'0 0.0
2018-Feb-18 16:30N 29°36' W 095°01'0 0.0
2018-Feb-18 16:00N 29°36' W 095°01'0 0.0
2018-Feb-18 15:30N 29°36' W 095°01'0 0.0
2018-Feb-18 15:00N 29°36' W 095°01'0 0.0
2018-Feb-18 14:30N 29°36' W 095°01'0 0.0
2018-Feb-18 14:00N 29°36' W 095°01'0 0.0
2018-Feb-18 13:30N 29°36' W 095°01'0 0.0
2018-Feb-18 13:00N 29°36' W 095°01'0 0.0
2018-Feb-18 12:30N 29°36' W 095°01'0 0.0
2018-Feb-18 12:00N 29°36' W 095°01'0 0.0
2018-Feb-18 11:30N 29°36' W 095°01'0 0.0
2018-Feb-18 11:00N 29°36' W 095°01'0 0.0
2018-Feb-18 10:30N 29°36' W 095°01'0 0.0
2018-Feb-18 10:00N 29°36' W 095°01'0 0.0
2018-Feb-18 09:30N 29°36' W 095°01'0 0.0
2018-Feb-18 09:00N 29°36' W 095°01'0 0.0
2018-Feb-18 08:30N 29°36' W 095°01'0 0.0
2018-Feb-18 08:00N 29°36' W 095°01'0 0.0
2018-Feb-18 07:30N 29°36' W 095°01'0 0.0
2018-Feb-18 07:00N 29°36' W 095°01'0 0.0
2018-Feb-18 06:30N 29°36' W 095°01'0 0.0
2018-Feb-18 06:00N 29°36' W 095°01'0 0.0
2018-Feb-18 05:30N 29°36' W 095°01'0 0.0
2018-Feb-18 05:00N 29°36' W 095°01'0 0.0
2018-Feb-18 04:30N 29°36' W 095°01'0 0.0
2018-Feb-18 04:00N 29°36' W 095°01'0 0.0
2018-Feb-18 03:30N 29°36' W 095°01'0 0.0
2018-Feb-18 03:00N 29°36' W 095°01'0 0.0
2018-Feb-18 02:30N 29°36' W 095°01'0 0.0
2018-Feb-18 02:00N 29°36' W 095°01'0 0.0
2018-Feb-18 01:30N 29°36' W 095°01'0 0.0
2018-Feb-18 01:00N 29°36' W 095°01'0 0.0
2018-Feb-18 00:30N 29°36' W 095°01'1 1.2
2018-Feb-18 00:00N 29°37' W 095°00'3 6.0
2018-Feb-17 23:30N 29°36' W 094°57'3 6.5
2018-Feb-17 23:00N 29°34' W 094°55'5 7.2
2018-Feb-17 22:16N 29°29' W 094°52'3 7.1
2018-Feb-17 21:49N 29°26' W 094°50'4 7.4
2018-Feb-17 21:18N 29°23' W 094°48'11 1.3
2018-Feb-17 12:44N 29°29' W 094°37'0 0.0
2018-Feb-17 11:32N 29°29' W 094°37'0 0.0
2018-Feb-17 11:30N 29°29' W 094°37'0 0.0
2018-Feb-17 10:44N 29°29' W 094°37'0 0.0
2018-Feb-17 10:28N 29°29' W 094°37'0 0.0
2018-Feb-17 09:54N 29°29' W 094°37'0 0.0
2018-Feb-17 09:29N 29°29' W 094°37'0 0.0
2018-Feb-17 08:58N 29°29' W 094°37'0 0.0
2018-Feb-17 08:26N 29°29' W 094°37'0 0.0
2018-Feb-17 07:57N 29°29' W 094°37'0 0.0
2018-Feb-17 07:28N 29°29' W 094°37'0 0.0
2018-Feb-17 06:51N 29°29' W 094°37'0 0.0
2018-Feb-17 06:28N 29°29' W 094°37'0 0.0
2018-Feb-17 06:00N 29°29' W 094°37'0 0.0
2018-Feb-17 05:28N 29°29' W 094°37'0 0.0
2018-Feb-17 05:00N 29°29' W 094°37'0 0.0
2018-Feb-17 04:30N 29°29' W 094°37'0 0.0
2018-Feb-17 04:00N 29°29' W 094°37'0 0.0
2018-Feb-17 03:30N 29°29' W 094°37'0 0.0
2018-Feb-17 03:00N 29°29' W 094°37'0 0.0
2018-Feb-17 02:29N 29°29' W 094°37'0 0.0
2018-Feb-17 02:00N 29°29' W 094°37'0 0.0
2018-Feb-17 01:26N 29°29' W 094°37'0 0.0
2018-Feb-17 01:00N 29°29' W 094°37'0 0.0
2018-Feb-17 00:27N 29°29' W 094°37'0 0.0
2018-Feb-17 00:00N 29°29' W 094°37'0 0.0
2018-Feb-16 23:30N 29°29' W 094°37'0 0.0
2018-Feb-16 22:59N 29°29' W 094°37'0 0.0
2018-Feb-16 22:27N 29°29' W 094°37'13 2.7
2018-Feb-16 17:34N 29°36' W 094°25'0 5.6
2018-Feb-16 17:29N 29°36' W 094°24'6 5.3
2018-Feb-16 16:25N 29°38' W 094°18'2 5.8
2018-Feb-16 16:00N 29°39' W 094°16'2 4.8
2018-Feb-16 15:30N 29°40' W 094°13'2 4.8
2018-Feb-16 15:00N 29°41' W 094°11'2 4.5
2018-Feb-16 14:30N 29°42' W 094°08'3 5.5
2018-Feb-16 14:00N 29°44' W 094°06'3 5.2
2018-Feb-16 13:30N 29°46' W 094°04'2 3.2
2018-Feb-16 13:00N 29°47' W 094°02'0 0.0
2018-Feb-16 12:30N 29°47' W 094°02'0 0.0
2018-Feb-16 12:00N 29°47' W 094°02'0 0.0
2018-Feb-16 11:30N 29°47' W 094°02'0 0.0
2018-Feb-16 11:00N 29°47' W 094°02'0 0.0
2018-Feb-16 10:30N 29°47' W 094°02'0 0.0
2018-Feb-16 10:00N 29°47' W 094°02'0 0.0
2018-Feb-16 09:30N 29°47' W 094°02'0 0.0
2018-Feb-16 09:00N 29°47' W 094°02'0 0.0
2018-Feb-16 08:30N 29°47' W 094°02'0 0.0
2018-Feb-16 08:00N 29°47' W 094°02'0 0.0
2018-Feb-16 07:30N 29°47' W 094°02'0 0.0
2018-Feb-16 07:00N 29°47' W 094°02'0 0.0
2018-Feb-16 06:30N 29°47' W 094°02'0 0.0
2018-Feb-16 06:00N 29°47' W 094°02'0 0.0
2018-Feb-16 05:30N 29°47' W 094°02'0 0.0
2018-Feb-16 05:00N 29°47' W 094°02'0 0.0
2018-Feb-16 04:30N 29°47' W 094°02'0 0.0
2018-Feb-16 04:00N 29°47' W 094°02'0 0.0
2018-Feb-16 03:30N 29°47' W 094°02'0 0.0
2018-Feb-16 03:00N 29°47' W 094°02'0 0.0
2018-Feb-16 02:30N 29°47' W 094°02'0 0.0
2018-Feb-16 02:00N 29°47' W 094°02'0 0.0
2018-Feb-16 01:30N 29°47' W 094°02'0 0.0
2018-Feb-16 01:00N 29°47' W 094°02'1 2.8
2018-Feb-16 00:30N 29°47' W 094°01'3 5.4
2018-Feb-16 00:00N 29°49' W 093°58'0 0.1
2018-Feb-15 23:30N 29°49' W 093°58'0 0.0
2018-Feb-15 23:00N 29°49' W 093°58'0 0.0
2018-Feb-15 22:30N 29°49' W 093°58'0 0.1
2018-Feb-15 22:00N 29°49' W 093°58'3 5.4
2018-Feb-15 21:30N 29°51' W 093°57'4 7.3
2018-Feb-15 21:00N 29°54' W 093°54'4 7.4
2018-Feb-15 20:30N 29°57' W 093°52'3 6.8
2018-Feb-15 20:00N 29°59' W 093°48'4 7.5
2018-Feb-15 19:30N 30°01' W 093°45'2 4.1
2018-Feb-15 18:59N 30°03' W 093°44'0 0.0
2018-Feb-15 18:30N 30°03' W 093°44'0 0.1
2018-Feb-15 18:00N 30°03' W 093°44'3 5.0
2018-Feb-15 17:30N 30°01' W 093°45'1 1.2
2018-Feb-15 17:00N 30°01' W 093°45'2 4.1
2018-Feb-15 16:30N 30°03' W 093°44'0 0.0
2018-Feb-15 16:00N 30°03' W 093°44'0 0.0
2018-Feb-15 15:30N 30°03' W 093°44'0 0.0
2018-Feb-15 15:00N 30°03' W 093°44'0 0.0
2018-Feb-15 14:30N 30°03' W 093°44'0 0.0
2018-Feb-15 14:00N 30°03' W 093°44'0 0.0
2018-Feb-15 13:30N 30°03' W 093°44'0 0.0
2018-Feb-15 13:00N 30°03' W 093°44'0 0.0
2018-Feb-15 12:30N 30°03' W 093°44'0 0.0
2018-Feb-15 12:00N 30°03' W 093°44'0 0.0
2018-Feb-15 11:30N 30°03' W 093°44'0 0.0
2018-Feb-15 11:00N 30°03' W 093°44'0 0.0
2018-Feb-15 10:30N 30°03' W 093°44'0 0.0
2018-Feb-15 10:00N 30°03' W 093°44'0 0.0
2018-Feb-15 09:30N 30°03' W 093°44'0 0.0
2018-Feb-15 09:00N 30°03' W 093°44'0 0.0
2018-Feb-15 08:30N 30°03' W 093°44'0 0.0
2018-Feb-15 08:00N 30°03' W 093°44'0 0.0
2018-Feb-15 07:30N 30°03' W 093°44'0 0.0
2018-Feb-15 07:01N 30°03' W 093°44'0 0.0
2018-Feb-15 06:30N 30°03' W 093°44'0 0.0
2018-Feb-15 06:00N 30°03' W 093°44'0 0.0
2018-Feb-15 05:31N 30°03' W 093°44'0 0.0
2018-Feb-15 05:00N 30°03' W 093°44'0 0.0
2018-Feb-15 04:30N 30°03' W 093°44'0 0.0
2018-Feb-15 04:00N 30°03' W 093°44'0 0.0
2018-Feb-15 03:30N 30°03' W 093°44'0 0.0
2018-Feb-15 03:01N 30°03' W 093°44'0 0.0
2018-Feb-15 02:30N 30°03' W 093°44'0 0.0
2018-Feb-15 02:00N 30°03' W 093°44'0 0.0
2018-Feb-15 01:30N 30°03' W 093°44'0 0.0
2018-Feb-15 01:00N 30°03' W 093°44'0 0.0
2018-Feb-15 00:30N 30°03' W 093°44'0 0.0
2018-Feb-15 00:00N 30°03' W 093°44'0 0.0
2018-Feb-14 23:30N 30°03' W 093°44'0 0.0
2018-Feb-14 23:00N 30°03' W 093°44'0 0.0
2018-Feb-14 22:30N 30°03' W 093°44'0 0.0
2018-Feb-14 22:00N 30°03' W 093°44'0 0.0
2018-Feb-14 21:30N 30°03' W 093°44'0 0.0
2018-Feb-14 21:00N 30°03' W 093°44'0 0.0
2018-Feb-14 20:29N 30°03' W 093°44'0 0.0
2018-Feb-14 20:00N 30°03' W 093°44'0 0.0
2018-Feb-14 19:30N 30°03' W 093°44'0 0.0
2018-Feb-14 19:00N 30°03' W 093°44'0 0.0
2018-Feb-14 18:30N 30°03' W 093°44'0 0.0
2018-Feb-14 18:00N 30°03' W 093°44'0 0.0
2018-Feb-14 17:30N 30°03' W 093°44'1 1.8
2018-Feb-14 17:00N 30°02' W 093°44'1 1.0
2018-Feb-14 16:30N 30°03' W 093°44'1 1.4
2018-Feb-14 15:31N 30°04' W 093°45'0 0.0
2018-Feb-14 15:22N 30°04' W 093°45'0 0.2
2018-Feb-14 15:00N 30°04' W 093°45'1 1.4
2018-Feb-14 14:30N 30°03' W 093°44'0 0.0
2018-Feb-14 14:00N 30°03' W 093°44'0 0.0
2018-Feb-14 13:30N 30°03' W 093°44'0 0.0
2018-Feb-14 13:00N 30°03' W 093°44'0 0.0
2018-Feb-14 12:31N 30°03' W 093°44'0 0.0
2018-Feb-14 12:00N 30°03' W 093°44'  

Dump ship's entire track history